Time;durP1;ratioP1;P1;durP2;ratioP2;P2;SDS_P1;SDS_P2;PMS_P1;PMS_P2;Temp;Humidity;BMP_temperature;BMP_pressure;BME280_temperature;BME280_humidity;BME280_pressure;Samples;Min_cycle;Max_cycle;Signal;HPM_P1;HPM_P2
2021/12/22 00:00:50;;;;;;;15.45;9.35;;;;;;;-2.65;100.00;102714.53;5034600;28;20037;-70
2021/12/22 00:03:15;;;;;;;13.75;8.55;;;;;;;-2.64;100.00;102707.63;5056999;28;20493;-70
2021/12/22 00:05:45;;;;;;;15.98;9.50;;;;;;;-2.71;100.00;102696.53;5033606;28;20081;-71
2021/12/22 00:08:13;;;;;;;16.85;9.68;;;;;;;-2.70;100.00;102709.44;5045270;28;20440;-71
2021/12/22 00:10:40;;;;;;;19.42;9.05;;;;;;;-2.75;100.00;102707.75;5035034;28;20048;-71
2021/12/22 00:13:06;;;;;;;18.48;10.27;;;;;;;-2.77;100.00;102702.59;5038897;28;20040;-70
2021/12/22 00:15:31;;;;;;;12.15;9.07;;;;;;;-2.76;100.00;102704.34;5039516;28;20032;-70
2021/12/22 00:17:56;;;;;;;23.70;9.98;;;;;;;-2.81;100.00;102694.91;5047001;28;20055;-71
2021/12/22 00:20:22;;;;;;;17.02;9.32;;;;;;;-2.78;100.00;102694.91;5051947;28;20033;-70
2021/12/22 00:22:47;;;;;;;14.98;8.55;;;;;;;-2.75;100.00;102697.44;5042439;28;20026;-71
2021/12/22 00:25:14;;;;;;;17.45;9.98;;;;;;;-2.82;100.00;102693.22;5045162;28;20128;-71
2021/12/22 00:27:39;;;;;;;17.55;9.65;;;;;;;-2.77;100.00;102701.75;5038121;28;20425;-70
2021/12/22 00:30:06;;;;;;;15.93;9.85;;;;;;;-2.84;100.00;102694.97;5044350;28;20040;-71
2021/12/22 00:32:34;;;;;;;21.00;11.52;;;;;;;-2.82;100.00;102703.56;5042783;28;20047;-70
2021/12/22 00:34:59;;;;;;;17.23;11.07;;;;;;;-2.86;100.00;102699.28;5041431;28;20112;-70
2021/12/22 00:37:28;;;;;;;16.30;9.45;;;;;;;-2.91;100.00;102689.88;5030674;28;20149;-70
2021/12/22 00:39:54;;;;;;;13.73;8.55;;;;;;;-2.86;100.00;102701.88;5035564;28;20035;-71
2021/12/22 00:42:20;;;;;;;19.80;10.25;;;;;;;-2.87;100.00;102700.16;5035299;28;20454;-70
2021/12/22 00:44:50;;;;;;;14.48;8.63;;;;;;;-3.04;100.00;102677.97;5040658;28;20040;-71
2021/12/22 00:47:24;;;;;;;15.88;11.05;;;;;;;-2.85;100.00;102706.16;5036971;28;20374;-71
2021/12/22 00:49:50;;;;;;;20.15;10.80;;;;;;;-2.90;100.00;102704.50;5036095;28;20359;-71
2021/12/22 00:52:15;;;;;;;16.45;10.13;;;;;;;-2.88;100.00;102703.63;5040349;28;20021;-71
2021/12/22 00:54:41;;;;;;;16.77;9.95;;;;;;;-2.85;100.00;102699.28;5037046;28;20052;-70
2021/12/22 00:57:06;;;;;;;12.32;9.43;;;;;;;-2.96;100.00;102678.75;5039856;28;20037;-70
2021/12/22 00:59:35;;;;;;;16.45;8.95;;;;;;;-2.81;100.00;102694.91;5044135;28;20033;-70
2021/12/22 01:02:03;;;;;;;15.02;9.35;;;;;;;-2.82;100.00;102699.25;5040529;28;20021;-70
2021/12/22 01:04:29;;;;;;;15.05;10.35;;;;;;;-2.91;100.00;102686.44;5039763;28;20056;-70
2021/12/22 01:06:54;;;;;;;16.90;10.23;;;;;;;-2.87;100.00;102705.31;5042006;28;20409;-70
2021/12/22 01:09:20;;;;;;;14.23;8.98;;;;;;;-2.91;100.00;102702.78;5042166;28;20166;-70
2021/12/22 01:11:46;;;;;;;17.30;10.80;;;;;;;-2.92;100.00;102702.78;5040929;28;20111;-70
2021/12/22 01:14:12;;;;;;;15.88;8.70;;;;;;;-3.03;100.00;102690.00;5037506;28;20046;-70
2021/12/22 01:16:38;;;;;;;12.30;8.68;;;;;;;-2.95;100.00;102703.69;5047969;28;20087;-70
2021/12/22 01:19:10;;;;;;;17.60;9.68;;;;;;;-2.95;100.00;102702.84;5041961;28;20024;-70
2021/12/22 01:21:47;;;;;;;13.32;8.05;;;;;;;-2.95;100.00;102703.69;5042935;28;20037;-70
2021/12/22 01:24:30;;;;;;;13.05;8.02;;;;;;;-3.04;100.00;102684.88;5042759;28;20033;-70
2021/12/22 01:27:04;;;;;;;15.38;8.43;;;;;;;-3.00;100.00;102696.88;5060198;28;20123;-71
2021/12/22 01:29:34;;;;;;;15.23;7.65;;;;;;;-2.99;100.00;102702.00;5045275;28;20091;-70
2021/12/22 01:32:00;;;;;;;15.95;8.93;;;;;;;-3.01;100.00;102718.41;5041245;28;20036;-71
2021/12/22 01:34:27;;;;;;;11.60;7.85;;;;;;;-3.07;100.00;102698.69;5048144;28;20036;-71
2021/12/22 01:36:53;;;;;;;15.68;9.45;;;;;;;-3.02;100.00;102696.88;5038737;28;20041;-71
2021/12/22 01:39:18;;;;;;;18.08;8.75;;;;;;;-3.08;100.00;102690.94;5041895;28;20043;-71
2021/12/22 01:41:44;;;;;;;19.10;9.48;;;;;;;-3.19;100.00;102665.22;5042961;28;20517;-70
2021/12/22 01:44:10;;;;;;;16.40;10.65;;;;;;;-3.06;100.00;102700.38;5043772;28;20113;-70
2021/12/22 01:49:14;;;;;;;21.48;9.85;;;;;;;-3.07;100.00;102698.69;5038920;28;20865;-70
2021/12/22 01:52:00;;;;;;;16.95;9.02;;;;;;;-3.08;100.00;102701.28;5037473;28;20036;-70
2021/12/22 01:54:34;;;;;;;17.05;8.80;;;;;;;-3.08;100.00;102693.53;5045529;28;20029;-70
2021/12/22 01:57:06;;;;;;;20.73;9.80;;;;;;;-3.06;100.00;102697.78;5042677;28;20029;-69
2021/12/22 01:59:31;;;;;;;12.77;8.02;;;;;;;-3.20;100.00;102672.13;5040163;28;20056;-70
2021/12/22 02:01:56;;;;;;;17.75;11.65;;;;;;;-3.07;100.00;102690.94;5041353;28;20041;-68
2021/12/22 02:04:22;;;;;;;17.27;8.75;;;;;;;-3.10;100.00;102698.69;5037086;28;20022;-69
2021/12/22 02:06:48;;;;;;;19.70;10.25;;;;;;;-3.13;100.00;102693.56;5045263;28;20057;-69
2021/12/22 02:09:23;;;;;;;14.65;9.38;;;;;;;-3.16;100.00;102688.44;5044182;28;20048;-69
2021/12/22 02:11:48;;;;;;;15.25;8.90;;;;;;;-3.19;100.00;102691.06;5039989;28;20041;-69
2021/12/22 02:14:14;;;;;;;16.38;9.52;;;;;;;-3.29;100.00;102667.03;5042964;28;20078;-68
2021/12/22 02:16:40;;;;;;;11.90;8.20;;;;;;;-3.25;100.00;102689.38;5042508;28;20488;-69
2021/12/22 02:19:09;;;;;;;18.77;9.82;;;;;;;-3.25;100.00;102683.38;5044199;28;20142;-69
2021/12/22 02:21:42;;;;;;;17.85;9.45;;;;;;;-3.25;100.00;102685.94;5042537;28;20075;-69
2021/12/22 02:24:08;;;;;;;17.58;10.45;;;;;;;-3.33;100.00;102675.72;5033295;28;20033;-69
2021/12/22 02:26:42;;;;;;;15.73;9.02;;;;;;;-3.26;100.00;102687.69;5043542;28;20037;-68
2021/12/22 02:29:18;;;;;;;13.73;9.23;;;;;;;-3.30;100.00;102675.66;5040439;28;20110;-70
2021/12/22 02:31:49;;;;;;;20.63;10.75;;;;;;;-3.31;100.00;102685.16;5048218;28;20048;-69
2021/12/22 02:34:16;;;;;;;18.90;9.35;;;;;;;-3.33;100.00;102686.88;5049272;28;20022;-70
2021/12/22 02:36:43;;;;;;;15.43;9.30;;;;;;;-3.39;100.00;102684.38;5043091;28;20048;-69
2021/12/22 02:39:09;;;;;;;14.02;9.70;;;;;;;-3.35;100.00;102688.63;5041315;28;20072;-69
2021/12/22 02:41:37;;;;;;;19.80;10.57;;;;;;;-3.37;100.00;102685.19;5050694;28;20049;-68
2021/12/22 02:44:04;;;;;;;18.65;9.93;;;;;;;-3.41;100.00;102683.53;5051252;28;20036;-69
2021/12/22 02:46:33;;;;;;;15.05;9.93;;;;;;;-3.41;100.00;102690.41;5045811;28;20033;-69
2021/12/22 02:49:03;;;;;;;14.02;8.95;;;;;;;-3.48;100.00;102675.84;5044016;28;21535;-69
2021/12/22 02:51:29;;;;;;;14.38;9.30;;;;;;;-3.48;100.00;102686.16;5047512;28;20033;-69
2021/12/22 02:56:53;;;;;;;12.05;8.55;;;;;;;-3.53;100.00;102688.78;5045016;28;20052;-70
2021/12/22 03:02:29;;;;;;;16.40;9.68;;;;;;;-3.61;100.00;102690.59;5029093;28;20048;-69
2021/12/22 03:04:57;;;;;;;19.17;11.70;;;;;;;-3.63;100.00;102687.19;5039647;28;20029;-69
2021/12/22 03:07:29;;;;;;;16.20;10.43;;;;;;;-3.66;100.00;102687.19;5042466;28;20052;-69
2021/12/22 03:10:00;;;;;;;19.52;11.05;;;;;;;-3.67;100.00;102685.50;5046588;28;20406;-70
2021/12/22 03:12:25;;;;;;;;;;;;;;;-3.69;100.00;102676.91;5042827;28;20104;-68
2021/12/22 03:14:51;;;;;;;14.25;8.82;;;;;;;-3.73;100.00;102682.06;5042756;28;20016;-69
2021/12/22 03:17:16;;;;;;;23.77;11.40;;;;;;;-3.73;100.00;102674.34;5038217;28;20112;-68
2021/12/22 03:19:42;;;;;;;13.18;8.98;;;;;;;-3.75;100.00;102668.34;5055641;28;20533;-69
2021/12/22 03:22:10;;;;;;;14.65;10.05;;;;;;;-3.77;100.00;102667.53;5039393;28;20057;-68
2021/12/22 03:24:39;;;;;;;17.27;10.48;;;;;;;-3.79;100.00;102664.09;5041888;28;20030;-68
2021/12/22 03:27:07;;;;;;;18.20;10.05;;;;;;;-3.82;100.00;102661.53;5040304;28;20362;-68
2021/12/22 03:29:35;;;;;;;14.95;9.48;;;;;;;-3.80;100.00;102680.44;5048984;28;20088;-68
2021/12/22 03:32:01;;;;;;;18.10;10.82;;;;;;;-3.81;100.00;102678.72;5039388;28;20484;-68
2021/12/22 03:34:27;;;;;;;13.77;8.98;;;;;;;-3.82;100.00;102684.75;5043570;28;20101;-68
2021/12/22 03:36:52;;;;;;;16.23;9.80;;;;;;;-3.85;100.00;102689.94;5048978;28;20033;-69
2021/12/22 03:39:18;;;;;;;18.00;10.55;;;;;;;-3.84;100.00;102694.22;5041618;28;20028;-69
2021/12/22 03:41:46;;;;;;;19.70;10.77;;;;;;;-3.87;100.00;102689.09;5041389;28;20060;-69
2021/12/22 03:44:12;;;;;;;20.08;11.57;;;;;;;-3.90;100.00;102683.94;5047650;28;20029;-69
2021/12/22 03:46:38;;;;;;;12.85;8.48;;;;;;;-3.97;100.00;102682.28;5044001;28;20434;-69
2021/12/22 03:49:05;;;;;;;17.77;10.48;;;;;;;-3.93;100.00;102686.56;5044187;28;20074;-69
2021/12/22 03:51:31;;;;;;;14.00;8.13;;;;;;;-3.94;100.00;102682.28;5047701;28;20048;-69
2021/12/22 03:53:56;;;;;;;16.05;9.80;;;;;;;-3.95;100.00;102683.97;5041718;28;20061;-68
2021/12/22 03:56:22;;;;;;;15.30;8.23;;;;;;;-3.96;100.00;102679.69;5046378;28;20678;-68
2021/12/22 03:58:47;;;;;;;8.98;7.22;;;;;;;-3.98;100.00;102680.59;5041186;28;20444;-69
2021/12/22 04:01:14;;;;;;;17.75;10.63;;;;;;;-4.10;100.00;102662.63;5048753;28;20498;-68
2021/12/22 04:03:42;;;;;;;14.95;9.38;;;;;;;-4.03;100.00;102674.59;5043144;28;20042;-68
2021/12/22 04:06:08;;;;;;;16.77;10.75;;;;;;;-4.09;100.00;102661.72;5041061;28;20460;-70
2021/12/22 04:08:33;;;;;;;15.85;8.40;;;;;;;-4.20;100.00;102659.25;5044882;28;20481;-69
2021/12/22 04:10:59;;;;;;;16.38;8.25;;;;;;;-4.09;100.00;102677.19;5048241;28;20033;-69
2021/12/22 04:13:24;;;;;;;15.75;10.02;;;;;;;-4.10;100.00;102672.94;5040936;28;20378;-69
2021/12/22 04:15:50;;;;;;;14.23;8.25;;;;;;;-4.17;100.00;102674.69;5037208;28;20025;-70
2021/12/22 04:18:17;;;;;;;16.83;8.50;;;;;;;-4.16;100.00;102682.44;5046232;28;20045;-69
2021/12/22 04:20:43;;;;;;;12.23;7.40;;;;;;;-4.18;100.00;102672.97;5041057;28;20477;-69
2021/12/22 04:23:08;;;;;;;17.40;9.20;;;;;;;-4.29;100.00;102665.34;5035221;28;20056;-69
2021/12/22 04:25:35;;;;;;;15.57;9.05;;;;;;;-4.21;100.00;102679.00;5043944;28;20067;-69
2021/12/22 04:28:06;;;;;;;18.70;10.32;;;;;;;-4.21;100.00;102668.69;5041875;28;20033;-69
2021/12/22 04:30:38;;;;;;;18.83;9.98;;;;;;;-4.24;100.00;102663.56;5041082;28;20075;-69
2021/12/22 04:33:04;;;;;;;14.15;7.88;;;;;;;-4.30;100.00;102647.28;5047137;28;20041;-69
2021/12/22 04:35:30;;;;;;;13.75;7.97;;;;;;;-4.30;100.00;102666.19;5039895;28;20033;-68
2021/12/22 04:37:55;;;;;;;15.90;8.93;;;;;;;-4.59;100.00;102614.84;5037881;28;20108;-69
2021/12/22 04:40:21;;;;;;;18.58;9.07;;;;;;;-4.46;100.00;102638.81;5034619;28;20049;-69
2021/12/22 04:42:46;;;;;;;19.92;10.40;;;;;;;-4.37;100.00;102649.91;5047809;28;20040;-68
2021/12/22 04:45:13;;;;;;;15.68;9.27;;;;;;;-4.40;100.00;102643.91;5038918;28;20025;-68
2021/12/22 04:47:39;;;;;;;20.13;10.02;;;;;;;-4.56;100.00;102628.53;5052653;28;20036;-69
2021/12/22 04:50:10;;;;;;;21.60;9.00;;;;;;;-4.43;100.00;102651.66;5046992;28;20040;-69
2021/12/22 04:52:44;;;;;;;18.63;9.48;;;;;;;-4.45;100.00;102650.81;5042445;28;20051;-69
2021/12/22 04:55:10;;;;;;;20.38;10.07;;;;;;;-4.67;100.00;102617.44;5040230;28;20611;-69
2021/12/22 04:57:35;;;;;;;15.45;8.55;;;;;;;-4.54;100.00;102646.56;5051927;28;20034;-69
2021/12/22 05:00:05;;;;;;;19.42;9.80;;;;;;;-4.57;100.00;102644.03;5046194;28;20028;-69
2021/12/22 05:02:31;;;;;;;17.23;9.13;;;;;;;-4.79;100.00;102613.22;5038423;28;20528;-69
2021/12/22 05:04:56;;;;;;;18.80;8.15;;;;;;;-4.80;100.00;102616.66;5035954;28;20064;-69
2021/12/22 05:07:22;;;;;;;17.08;8.65;;;;;;;-4.66;100.00;102634.63;5045214;28;20053;-69
2021/12/22 05:09:47;;;;;;;16.08;7.05;;;;;;;-4.78;100.00;102630.38;5055738;28;20056;-69
2021/12/22 05:12:13;;;;;;;15.55;9.15;;;;;;;-4.86;100.00;102613.25;5041439;28;20040;-69
2021/12/22 05:14:39;;;;;;;13.45;7.60;;;;;;;-4.72;100.00;102632.06;5023560;28;20041;-69
2021/12/22 05:17:06;;;;;;;15.95;8.95;;;;;;;-4.86;100.00;102614.09;5040383;28;20055;-69
2021/12/22 05:19:32;;;;;;;18.92;8.68;;;;;;;-4.73;100.00;102632.06;5040491;28;20104;-68
2021/12/22 05:21:58;;;;;;;14.23;8.27;;;;;;;-4.78;100.00;102632.09;5049675;28;20500;-68
2021/12/22 05:24:23;;;;;;;11.20;7.18;;;;;;;-4.79;100.00;102636.41;5039271;28;20404;-68
2021/12/22 05:26:50;;;;;;;16.52;8.45;;;;;;;-4.80;100.00;102632.09;5037952;28;20140;-68
2021/12/22 05:29:16;;;;;;;15.70;7.97;;;;;;;-4.80;100.00;102626.09;5038745;28;20030;-68
2021/12/22 05:31:42;;;;;;;16.13;8.05;;;;;;;-4.98;100.00;102604.72;5051547;28;20497;-68
2021/12/22 05:34:08;;;;;;;14.13;5.97;;;;;;;-4.85;100.00;102630.44;5041378;28;20025;-68
2021/12/22 05:36:33;;;;;;;17.73;9.70;;;;;;;-4.88;100.00;102617.56;5045507;28;20068;-68
2021/12/22 05:38:59;;;;;;;15.65;7.95;;;;;;;-4.88;100.00;102622.69;5040072;28;20033;-68
2021/12/22 05:41:24;;;;;;;15.90;8.95;;;;;;;-4.90;100.00;102615.00;5027876;28;20056;-68
2021/12/22 05:43:50;;;;;;;17.75;9.45;;;;;;;-4.92;100.00;102613.28;5047044;28;20052;-68
2021/12/22 05:46:16;;;;;;;16.25;9.35;;;;;;;-4.94;100.00;102608.16;5040745;28;20037;-68
2021/12/22 05:48:44;;;;;;;21.40;8.75;;;;;;;-4.92;100.00;102615.84;5045624;28;20037;-69
2021/12/22 05:51:10;;;;;;;12.05;7.00;;;;;;;-4.91;100.00;102602.13;5044018;28;20032;-68
2021/12/22 05:53:36;;;;;;;26.48;9.63;;;;;;;-5.05;100.00;102585.03;5040990;28;20418;-69
2021/12/22 05:56:02;;;;;;;16.77;9.40;;;;;;;-4.93;100.00;102604.69;5038239;28;20033;-68
2021/12/22 05:58:28;;;;;;;22.23;9.50;;;;;;;-4.97;100.00;102603.00;5042107;28;20576;-68
2021/12/22 06:00:53;;;;;;;13.98;9.13;;;;;;;-5.02;100.00;102610.75;5040760;28;20119;-68
2021/12/22 06:03:19;;;;;;;15.73;8.93;;;;;;;-5.01;100.00;102602.19;5042312;28;20041;-68
2021/12/22 06:05:45;;;;;;;22.15;8.75;;;;;;;-5.03;100.00;102603.03;5042219;28;20038;-69
2021/12/22 06:08:10;;;;;;;16.45;10.13;;;;;;;-5.06;100.00;102603.91;5045828;28;20044;-68
2021/12/22 06:10:36;;;;;;;10.10;7.25;;;;;;;-5.10;100.00;102602.19;5042105;28;20483;-68
2021/12/22 06:13:06;;;;;;;18.40;8.55;;;;;;;-5.23;100.00;102585.94;5045805;28;20033;-68
2021/12/22 06:15:34;;;;;;;17.58;9.32;;;;;;;-5.15;100.00;102598.78;5041786;28;20032;-68
2021/12/22 06:18:01;;;;;;;16.92;8.18;;;;;;;-5.18;100.00;102598.81;5047930;28;20075;-68
2021/12/22 06:20:27;;;;;;;18.00;10.07;;;;;;;-5.23;100.00;102591.09;5043066;28;20040;-70
2021/12/22 06:22:53;;;;;;;18.38;10.38;;;;;;;-5.20;100.00;102595.41;5040049;28;20111;-68
2021/12/22 06:25:19;;;;;;;19.90;10.77;;;;;;;-5.20;100.00;102596.25;5043338;28;20116;-68
2021/12/22 06:27:44;;;;;;;18.88;9.68;;;;;;;-5.31;100.00;102571.38;5040213;28;20136;-68
2021/12/22 06:30:10;;;;;;;16.35;8.20;;;;;;;-5.17;100.00;102600.50;5028835;28;20509;-68
2021/12/22 06:32:36;;;;;;;15.95;9.27;;;;;;;-5.26;100.00;102595.41;5050308;28;20045;-68
2021/12/22 06:35:01;;;;;;;19.92;10.82;;;;;;;-5.24;100.00;102597.13;5028320;28;20421;-68
2021/12/22 06:37:26;;;;;;;18.98;10.18;;;;;;;-5.18;100.00;102609.13;5039181;28;20471;-68
2021/12/22 06:39:52;;;;;;;20.35;10.65;;;;;;;-5.20;100.00;102608.25;5042838;28;20033;-68
2021/12/22 06:42:17;;;;;;;24.50;11.48;;;;;;;-5.18;100.00;102615.13;5041595;28;20100;-68
2021/12/22 06:44:43;;;;;;;14.95;9.20;;;;;;;-5.17;100.00;102610.81;5043410;28;20044;-68
2021/12/22 06:47:10;;;;;;;17.45;9.88;;;;;;;-5.32;100.00;102585.13;5041369;28;20041;-70
2021/12/22 06:49:36;;;;;;;19.10;10.32;;;;;;;-5.28;100.00;102581.69;5043960;28;20559;-68
2021/12/22 06:52:02;;;;;;;20.60;11.70;;;;;;;-5.23;100.00;102600.53;5043737;28;20041;-68
2021/12/22 06:54:28;;;;;;;17.33;8.98;;;;;;;-5.33;100.00;102576.56;5039523;28;20040;-68
2021/12/22 06:56:53;;;;;;;17.42;10.23;;;;;;;-5.16;100.00;102612.53;5044651;28;20037;-68
2021/12/22 06:59:18;;;;;;;17.45;8.95;;;;;;;-5.28;100.00;102595.41;5045433;28;20137;-68
2021/12/22 07:01:45;;;;;;;21.52;9.82;;;;;;;-5.26;100.00;102590.25;5040325;28;20041;-68
2021/12/22 07:04:11;;;;;;;15.02;8.80;;;;;;;-5.20;100.00;102605.69;5039992;28;20037;-69
2021/12/22 07:06:36;;;;;;;13.70;7.32;;;;;;;-5.22;100.00;102600.53;5048596;28;20064;-69
2021/12/22 07:09:04;;;;;;;10.20;6.80;;;;;;;-5.24;100.00;102599.69;5042303;28;20592;-69
2021/12/22 07:11:29;;;;;;;14.30;8.32;;;;;;;-5.24;100.00;102604.84;5039663;28;20082;-69
2021/12/22 07:13:55;;;;;;;12.63;6.60;;;;;;;-5.30;100.00;102599.69;5044559;28;20432;-68
2021/12/22 07:16:20;;;;;;;13.48;9.30;;;;;;;-5.29;100.00;102603.13;5041476;28;20035;-68
2021/12/22 07:18:46;;;;;;;18.42;8.90;;;;;;;-5.40;100.00;102573.16;5036903;28;20076;-69
2021/12/22 07:21:11;;;;;;;14.40;6.30;;;;;;;-5.39;100.00;102579.16;5041427;28;20045;-69
2021/12/22 07:23:37;;;;;;;17.52;9.00;;;;;;;-5.33;100.00;102586.84;5041240;28;20029;-69
2021/12/22 07:26:03;;;;;;;15.88;8.07;;;;;;;-5.33;100.00;102583.41;5040110;28;20024;-69
2021/12/22 07:28:28;;;;;;;23.30;10.75;;;;;;;-5.32;100.00;102590.28;5057073;28;20041;-69
2021/12/22 07:30:54;;;;;;;14.43;9.60;;;;;;;-5.43;100.00;102577.44;5058447;28;20041;-69
2021/12/22 07:33:19;;;;;;;16.20;9.18;;;;;;;-5.42;100.00;102574.88;5029379;28;20040;-69
2021/12/22 07:35:58;;;;;;;19.45;8.23;;;;;;;-5.32;100.00;102580.84;5027622;28;20052;-68
2021/12/22 07:38:24;;;;;;;17.98;9.15;;;;;;;-5.34;100.00;102587.69;5054308;28;20045;-69
2021/12/22 07:40:51;;;;;;;29.05;13.18;;;;;;;-5.44;100.00;102566.31;5043963;28;20025;-69
2021/12/22 07:43:16;;;;;;;15.13;9.50;;;;;;;-5.31;100.00;102573.97;5039516;28;20098;-68
2021/12/22 07:45:42;;;;;;;12.98;7.72;;;;;;;-5.29;100.00;102585.09;5045134;28;20124;-69
2021/12/22 07:48:07;;;;;;;15.50;9.70;;;;;;;-5.33;100.00;102573.09;5045996;28;20045;-69
2021/12/22 07:50:33;;;;;;;13.80;7.50;;;;;;;-5.48;100.00;102553.47;5042341;28;21276;-70
2021/12/22 07:52:58;;;;;;;19.33;9.10;;;;;;;-5.33;100.00;102584.28;5037330;28;20496;-69
2021/12/22 07:55:24;;;;;;;26.73;8.13;;;;;;;-5.31;100.00;102586.81;5045250;28;20381;-69
2021/12/22 07:57:49;;;;;;;16.77;8.50;;;;;;;-5.29;100.00;102572.25;5041208;28;20059;-69
2021/12/22 08:00:15;;;;;;;18.70;10.27;;;;;;;-5.25;100.00;102581.66;5039690;28;20037;-69
2021/12/22 08:02:41;;;;;;;21.05;10.20;;;;;;;-5.19;100.00;102581.66;5040881;28;20044;-69
2021/12/22 08:05:06;;;;;;;15.10;7.35;;;;;;;-5.11;100.00;102590.19;5039758;28;20037;-70
2021/12/22 08:07:32;;;;;;;35.88;12.30;;;;;;;-5.08;100.00;102579.88;5042357;28;20058;-69
2021/12/22 08:09:59;;;;;;;20.50;8.45;;;;;;;-5.04;100.00;102584.16;5044565;28;20044;-69
2021/12/22 08:12:24;;;;;;;15.00;7.53;;;;;;;-4.96;100.00;102587.53;5042367;28;20041;-69
2021/12/22 08:14:50;;;;;;;23.60;11.23;;;;;;;-4.96;100.00;102579.81;5036486;28;20033;-69
2021/12/22 08:17:15;;;;;;;18.13;10.77;;;;;;;-4.90;100.00;102583.22;5039422;28;20056;-69
2021/12/22 08:19:41;;;;;;;18.33;9.40;;;;;;;-4.89;100.00;102585.78;5041657;28;20493;-69
2021/12/22 08:22:06;;;;;;;20.52;7.55;;;;;;;-4.90;100.00;102572.91;5041467;28;20037;-69
2021/12/22 08:24:32;;;;;;;20.35;10.52;;;;;;;-4.74;100.00;102595.16;5036962;28;20033;-68
2021/12/22 08:26:58;;;;;;;21.92;10.43;;;;;;;-4.67;100.00;102590.81;5041376;28;20188;-68
2021/12/22 08:29:24;;;;;;;22.50;11.05;;;;;;;-4.64;100.00;102601.97;5037797;28;20431;-69
2021/12/22 08:31:49;;;;;;;18.95;9.25;;;;;;;-4.65;100.00;102584.78;5039861;28;20071;-69
2021/12/22 08:34:22;;;;;;;19.35;9.70;;;;;;;-4.48;100.00;102586.41;5042023;28;20091;-69
2021/12/22 08:39:32;;;;;;;22.58;10.00;;;;;;;-4.36;100.00;102581.16;5038681;28;20142;-69
2021/12/22 08:41:57;;;;;;;14.05;9.32;;;;;;;-4.29;100.00;102580.25;5037468;28;20029;-68
2021/12/22 08:44:23;;;;;;;18.65;10.95;;;;;;;-4.17;100.00;102582.72;5038575;28;20323;-68
2021/12/22 08:46:50;;;;;;;14.05;7.55;;;;;;;-4.14;100.00;102579.25;5041814;28;20032;-68
2021/12/22 08:49:18;;;;;;;11.93;8.23;;;;;;;-4.09;100.00;102582.66;5038081;28;20044;-69
2021/12/22 08:51:44;;;;;;;17.73;8.65;;;;;;;-4.13;100.00;102587.00;5040510;28;20052;-69
2021/12/22 08:54:10;;;;;;;15.70;8.48;;;;;;;-4.02;100.00;102586.91;5038343;28;20061;-69
2021/12/22 08:56:36;;;;;;;16.75;8.55;;;;;;;-4.00;100.00;102585.16;5036597;28;20028;-69
2021/12/22 08:59:04;;;;;;;18.88;8.43;;;;;;;-4.07;100.00;102577.47;5039848;28;20029;-68
2021/12/22 09:01:29;;;;;;;16.00;7.57;;;;;;;-4.09;100.00;102572.34;5035322;28;20029;-68
2021/12/22 09:03:55;;;;;;;38.85;20.63;;;;;;;-3.87;100.00;102600.53;5038062;28;20402;-68
2021/12/22 09:06:21;;;;;;;11.50;7.50;;;;;;;-3.77;100.00;102602.13;5036960;28;20084;-68
2021/12/22 09:08:46;;;;;;;24.70;9.35;;;;;;;-3.81;100.00;102584.97;5032101;28;20045;-68
2021/12/22 09:11:12;;;;;;;14.48;8.65;;;;;;;-3.60;100.00;102600.25;5021657;28;20053;-68
2021/12/22 09:13:39;;;;;;;14.68;8.02;;;;;;;-3.53;100.00;102590.72;5034020;28;20029;-69
2021/12/22 09:16:07;;;;;;;17.90;11.05;;;;;;;-3.45;100.00;102600.97;5014926;28;20043;-70
2021/12/22 09:18:33;;;;;;;18.85;10.20;;;;;;;-3.41;100.00;102611.22;5029646;28;20516;-70
2021/12/22 09:20:59;;;;;;;16.75;8.82;;;;;;;-3.31;100.00;102615.44;5031869;28;20030;-70
2021/12/22 09:23:24;;;;;;;20.83;10.40;;;;;;;-3.26;100.00;102609.38;5032259;28;20030;-70
2021/12/22 09:25:50;;;;;;;16.10;8.93;;;;;;;-3.22;100.00;102605.84;5033902;28;20051;-69
2021/12/22 09:28:15;;;;;;;19.83;9.93;;;;;;;-3.07;100.00;102607.38;5031663;28;23021;-69
2021/12/22 09:30:42;;;;;;;19.00;10.88;;;;;;;-2.96;100.00;102593.47;5051734;28;20036;-69
2021/12/22 09:33:11;;;;;;;18.60;9.43;;;;;;;-2.64;100.00;102599.06;5030937;28;20064;-69
2021/12/22 09:35:37;;;;;;;17.35;8.80;;;;;;;-2.29;100.00;102590.78;5029748;28;20502;-69
2021/12/22 09:38:03;;;;;;;14.15;7.97;;;;;;;-1.97;99.15;102592.00;5034081;28;20065;-69
2021/12/22 09:40:29;;;;;;;14.77;8.68;;;;;;;-1.87;97.71;102570.25;5035342;28;20056;-69
2021/12/22 09:42:55;;;;;;;15.88;9.90;;;;;;;-1.68;96.00;102584.56;5039438;28;20668;-69
2021/12/22 09:45:24;;;;;;;17.80;8.75;;;;;;;-1.57;94.62;102583.50;5037223;28;20404;-69
2021/12/22 09:50:47;;;;;;;14.45;8.45;;;;;;;-1.66;92.88;102587.97;5040510;28;20068;-69
2021/12/22 09:53:19;;;;;;;15.57;9.63;;;;;;;-1.58;93.03;102580.06;5035509;28;20036;-69
2021/12/22 09:55:44;;;;;;;;;;;;;;;-1.25;92.91;102591.47;5031600;28;20090;-68
2021/12/22 09:58:10;;;;;;;17.70;8.43;;;;;;;-0.99;91.60;102591.84;5021455;28;19924;-69
2021/12/22 10:00:36;;;;;;;20.50;10.95;;;;;;;-0.82;90.91;102586.31;5037256;28;20292;-69
2021/12/22 10:03:05;;;;;;;23.98;10.82;;;;;;;-0.77;90.10;102584.44;5037611;28;20514;-69
2021/12/22 10:05:30;;;;;;;21.60;9.75;;;;;;;-0.40;89.39;102589.63;5038441;28;20040;-69
2021/12/22 10:08:06;;;;;;;19.95;9.00;;;;;;;-0.05;87.70;102580.97;5033651;28;20071;-70
2021/12/22 10:10:31;;;;;;;14.88;8.90;;;;;;;0.12;86.23;102582.31;5035978;28;20020;-70
2021/12/22 10:13:05;;;;;;;19.27;9.63;;;;;;;0.46;84.82;102568.41;5033781;28;20099;-70
2021/12/22 10:15:31;;;;;;;15.82;8.05;;;;;;;0.64;84.05;102561.88;5037529;28;20517;-70
2021/12/22 10:18:10;;;;;;;18.83;10.57;;;;;;;0.83;83.14;102583.84;5041003;28;20435;-70
2021/12/22 10:20:36;;;;;;;18.17;9.30;;;;;;;1.09;82.60;102577.84;5053328;28;20107;-71
2021/12/22 10:23:02;;;;;;;16.60;8.10;;;;;;;1.22;81.37;102565.34;5035023;28;20041;-71
2021/12/22 10:25:31;;;;;;;17.02;8.55;;;;;;;0.86;81.77;102577.69;5032684;28;20033;-70
2021/12/22 10:28:09;;;;;;;13.35;8.07;;;;;;;0.90;83.19;102581.91;5039356;28;20485;-71
2021/12/22 10:30:41;;;;;;;16.15;9.15;;;;;;;1.30;83.18;102575.50;5042970;28;20471;-71
2021/12/22 10:33:14;;;;;;;18.30;8.52;;;;;;;1.08;81.89;102544.94;5034302;28;20055;-71
2021/12/22 10:35:42;;;;;;;12.80;8.00;;;;;;;1.08;81.83;102570.94;5046576;28;20025;-71
2021/12/22 10:38:09;;;;;;;13.88;7.30;;;;;;;1.13;82.90;102563.00;5039222;28;20048;-71
2021/12/22 10:40:37;;;;;;;15.32;8.45;;;;;;;1.20;82.13;102562.78;5050995;28;20075;-71
2021/12/22 10:43:04;;;;;;;16.85;9.13;;;;;;;0.90;82.86;102540.31;5045513;28;20389;-71
2021/12/22 10:45:34;;;;;;;15.25;7.72;;;;;;;1.71;82.05;102557.72;5032518;28;20030;-71
2021/12/22 10:50:59;;;;;;;18.10;8.20;;;;;;;0.64;83.43;102549.72;5041161;28;20143;-71
2021/12/22 10:53:25;;;;;;;17.85;7.68;;;;;;;0.39;83.84;102514.06;5045515;28;20041;-71
2021/12/22 10:55:57;;;;;;;13.82;8.07;;;;;;;0.30;84.97;102544.59;5028096;28;20032;-73
2021/12/22 10:58:28;;;;;;;14.57;8.35;;;;;;;0.19;85.72;102531.91;5047548;28;20025;-73
2021/12/22 11:01:13;;;;;;;19.58;8.57;;;;;;;-0.25;86.91;102536.53;5037875;28;20025;-72
2021/12/22 11:03:47;;;;;;;12.98;7.93;;;;;;;-0.27;87.65;102538.31;5045249;28;20029;-74
2021/12/22 11:06:15;;;;;;;13.55;7.32;;;;;;;-0.17;88.27;102539.78;5042693;28;20057;-74
2021/12/22 11:08:41;;;;;;;18.33;8.52;;;;;;;-0.10;88.22;102530.94;5037485;28;20068;-74
2021/12/22 11:11:15;;;;;;;19.42;7.50;;;;;;;-0.34;88.67;102537.59;5038382;28;20064;-73
2021/12/22 11:13:42;;;;;;;19.77;8.85;;;;;;;-0.64;88.98;102513.28;5054998;28;20123;-74
2021/12/22 11:16:12;;;;;;;12.80;7.07;;;;;;;-0.71;90.23;102522.09;5039884;28;20037;-72
2021/12/22 11:18:38;;;;;;;16.25;7.88;;;;;;;-0.86;91.30;102524.13;5038741;28;20462;-73
2021/12/22 11:21:09;;;;;;;14.88;7.63;;;;;;;-0.80;91.78;102527.50;5039878;28;20171;-73
2021/12/22 11:23:35;;;;;;;19.70;8.70;;;;;;;-0.84;92.28;102524.97;5034894;28;20030;-73
2021/12/22 11:26:02;;;;;;;16.58;7.28;;;;;;;-1.00;92.53;102500.28;5041207;28;20025;-74